createdAt,value
2023-05-14T09:56:09.896Z,100390.41
2023-05-14T09:58:37.678Z,100480.25
2023-05-14T10:01:06.653Z,100510.44
2023-05-14T10:03:34.427Z,100573.00
2023-05-14T10:06:07.216Z,100547.44
2023-05-14T10:08:36.887Z,100575.84
2023-05-14T10:11:07.852Z,100664.19
2023-05-14T10:13:40.891Z,100671.56
2023-05-14T10:16:15.678Z,100679.97
2023-05-14T10:18:48.579Z,100683.34
2023-05-14T10:21:18.460Z,100654.16
2023-05-14T10:23:47.440Z,100648.88
2023-05-14T10:26:15.670Z,100664.59
2023-05-14T10:28:44.912Z,100665.19
2023-05-14T10:31:13.896Z,100637.50
2023-05-14T10:33:50.195Z,100642.56
2023-05-14T10:36:19.035Z,100626.56
2023-05-14T10:38:47.775Z,100610.84
2023-05-14T10:41:17.785Z,100615.41
2023-05-14T10:43:46.888Z,100619.13
2023-05-14T10:46:15.765Z,100608.47
2023-05-14T10:48:44.716Z,100598.09
2023-05-14T10:51:13.415Z,100613.25
2023-05-14T10:53:43.491Z,100615.91
2023-05-14T10:56:12.881Z,100603.34
2023-05-14T10:58:43.701Z,100619.59
2023-05-14T11:01:14.157Z,100613.41
2023-05-14T11:03:43.408Z,100618.97
2023-05-14T11:06:13.037Z,100656.03
2023-05-14T11:08:41.644Z,100708.06
2023-05-14T11:11:10.484Z,100648.13
2023-05-14T11:13:38.468Z,100652.34
2023-05-14T11:18:41.717Z,100639.22
2023-05-14T11:21:09.659Z,100651.50
2023-05-14T11:23:37.417Z,100677.72
2023-05-14T11:26:05.479Z,100653.09
2023-05-14T11:28:33.301Z,100732.34
2023-05-14T11:31:01.012Z,100745.94
2023-05-14T11:33:28.894Z,100672.03
2023-05-14T11:35:58.067Z,100672.69
2023-05-14T11:38:25.784Z,100783.69
2023-05-14T11:40:54.475Z,101021.25
2023-05-14T11:43:23.753Z,100935.06
2023-05-14T11:45:52.559Z,100885.09
2023-05-14T11:48:20.501Z,100966.22
2023-05-14T11:50:49.622Z,100900.44
2023-05-14T11:53:26.367Z,101070.88
2023-05-14T11:55:55.282Z,101269.44
2023-05-14T11:58:23.268Z,101332.63
2023-05-14T12:00:52.409Z,101324.31
2023-05-14T12:03:25.510Z,101423.31
2023-05-14T12:05:57.895Z,101442.06
2023-05-14T12:08:31.266Z,101505.03
2023-05-14T12:11:00.542Z,101253.09
2023-05-14T12:13:29.332Z,101425.94
2023-05-14T12:15:58.614Z,101272.59
2023-05-14T12:18:28.190Z,101387.09
2023-05-14T12:20:56.320Z,101376.13
2023-05-14T12:23:30.215Z,101321.34
2023-05-14T12:26:03.500Z,101297.31
2023-05-14T12:28:31.649Z,101310.69
2023-05-14T12:31:00.064Z,101341.66
2023-05-14T12:33:28.546Z,101438.28
2023-05-14T12:35:58.890Z,101496.94
2023-05-14T12:38:29.869Z,101510.31
2023-05-14T12:40:57.596Z,101522.91
2023-05-14T12:43:25.419Z,101556.66
2023-05-14T12:45:53.049Z,101503.84
2023-05-14T12:48:20.728Z,101507.09
2023-05-14T12:50:48.809Z,101559.84
2023-05-14T12:53:16.954Z,101499.66
2023-05-14T12:55:46.323Z,101586.03
2023-05-14T12:58:13.979Z,101553.69
2023-05-14T13:00:41.817Z,101490.19
2023-05-14T13:03:09.642Z,101530.22
2023-05-14T13:05:37.403Z,101598.41
2023-05-14T13:08:05.119Z,101513.47
2023-05-14T13:10:32.860Z,101550.22
2023-05-14T13:13:02.929Z,101578.63
2023-05-14T13:15:31.606Z,101577.78
2023-05-14T13:17:59.445Z,101578.59
2023-05-14T13:20:27.546Z,101548.63
2023-05-14T13:22:55.482Z,101520.94
2023-05-14T13:25:23.315Z,101540.56
2023-05-14T13:27:51.697Z,101559.59
2023-05-14T13:30:21.260Z,101585.03
2023-05-14T13:32:49.411Z,101610.50
2023-05-14T13:35:17.292Z,101590.66
2023-05-14T13:37:45.285Z,101579.16
2023-05-14T13:40:13.409Z,101559.06
2023-05-14T13:42:41.061Z,101522.63
2023-05-14T13:45:09.699Z,101483.50
2023-05-14T13:47:40.093Z,101591.75
2023-05-14T13:50:08.821Z,101470.97
2023-05-14T13:52:37.811Z,101501.13
2023-05-14T13:55:06.461Z,101509.16
2023-05-14T13:57:34.132Z,101523.72
2023-05-14T14:00:02.304Z,101507.63
2023-05-14T14:02:31.286Z,101543.25
2023-05-14T14:05:00.914Z,101483.78
2023-05-14T14:07:28.586Z,101484.53
2023-05-14T14:09:56.303Z,101492.47
2023-05-14T14:12:24.069Z,101517.03
2023-05-14T14:14:52.241Z,101493.16
2023-05-14T14:17:20.030Z,101508.47
2023-05-14T14:19:47.834Z,101527.09
2023-05-14T14:22:17.429Z,101479.59
2023-05-14T14:24:45.306Z,101478.44
2023-05-14T14:27:13.012Z,101495.09
2023-05-14T14:29:40.704Z,101511.25
2023-05-14T14:32:08.873Z,101494.75
2023-05-14T14:34:36.737Z,101500.69
2023-05-14T14:37:04.450Z,101471.44
2023-05-14T14:39:33.546Z,101484.31
2023-05-14T14:42:01.275Z,101474.16
2023-05-14T14:44:28.962Z,101482.22
2023-05-14T14:46:56.728Z,101461.31
2023-05-14T14:49:24.782Z,101453.56
2023-05-14T14:51:52.358Z,101482.75
2023-05-14T14:54:20.075Z,101486.75
2023-05-14T14:56:52.266Z,101522.09
2023-05-14T14:59:19.986Z,101487.84
2023-05-14T15:01:47.797Z,101483.28
2023-05-14T15:04:15.671Z,101497.13
2023-05-14T15:06:43.360Z,101478.38
2023-05-14T15:09:11.063Z,101471.44
2023-05-14T15:11:38.740Z,101477.03
2023-05-14T15:14:07.921Z,101482.09
2023-05-14T15:16:35.749Z,101496.25
2023-05-14T15:19:03.707Z,101521.94
2023-05-14T15:21:31.999Z,101518.31
2023-05-14T15:23:59.805Z,101524.00
2023-05-14T15:26:27.453Z,101477.53
2023-05-14T15:28:55.432Z,101505.00
2023-05-14T15:31:24.738Z,101513.53
2023-05-14T15:33:52.964Z,101512.22
2023-05-14T15:36:20.770Z,101544.31
2023-05-14T15:38:48.746Z,101525.03
2023-05-14T15:41:16.547Z,101495.25
2023-05-14T15:43:44.293Z,101508.78
2023-05-14T15:46:12.577Z,101497.00
2023-05-14T15:48:42.141Z,101449.66
2023-05-14T15:51:09.919Z,101440.66
2023-05-14T15:53:37.742Z,101416.91
2023-05-14T15:56:05.923Z,101397.97
2023-05-14T15:58:33.452Z,101394.34
2023-05-14T16:01:01.483Z,101394.50
2023-05-14T16:03:29.309Z,101383.06
2023-05-14T16:05:58.412Z,101372.53
2023-05-14T16:08:26.098Z,101331.31
2023-05-14T16:10:53.814Z,101284.50
2023-05-14T16:13:21.441Z,101308.34
2023-05-14T16:15:49.470Z,101317.88
2023-05-14T16:18:17.485Z,101288.97
2023-05-14T16:20:45.170Z,101264.41
2023-05-14T16:23:14.531Z,101218.28
2023-05-14T16:25:42.365Z,101218.56
2023-05-14T16:28:10.150Z,101185.00
2023-05-14T16:30:37.811Z,101157.88
2023-05-14T16:33:06.408Z,101114.00
2023-05-14T16:35:34.240Z,101133.00
2023-05-14T16:38:02.042Z,101115.97
2023-05-14T16:40:31.083Z,101119.38
2023-05-14T16:42:58.795Z,101082.63
2023-05-14T16:45:26.710Z,101043.63
2023-05-14T16:47:54.732Z,101001.47
2023-05-14T16:50:22.484Z,100969.00
2023-05-14T16:52:50.332Z,100906.47
2023-05-14T16:55:19.491Z,100851.91
2023-05-14T16:57:48.710Z,100776.25
2023-05-14T17:00:17.886Z,100758.28
2023-05-14T17:02:49.070Z,100720.63
2023-05-14T17:05:17.307Z,100690.25
2023-05-14T17:07:45.060Z,100645.97
2023-05-14T17:10:12.740Z,100613.91
2023-05-14T17:12:40.504Z,100618.16
2023-05-14T17:15:10.864Z,100599.53
2023-05-14T17:17:38.671Z,100587.00
2023-05-14T17:20:07.352Z,100589.50
2023-05-14T17:22:35.521Z,100579.28
2023-05-14T17:25:03.710Z,100568.34
2023-05-14T17:27:33.286Z,100537.13
2023-05-14T17:30:01.641Z,100533.78
2023-05-14T17:32:31.256Z,100508.22
2023-05-14T17:34:59.286Z,100503.16
2023-05-14T17:37:27.400Z,100506.84
2023-05-14T17:39:55.267Z,100508.50
2023-05-14T17:42:22.987Z,100491.91
2023-05-14T17:44:50.734Z,100474.88
2023-05-14T17:47:20.601Z,100455.56
2023-05-14T17:49:50.836Z,100446.69
2023-05-14T17:52:19.087Z,100452.47
2023-05-14T17:54:46.910Z,100459.47
2023-05-14T17:57:14.627Z,100449.84
2023-05-14T17:59:42.449Z,100447.44
2023-05-14T18:02:10.137Z,100448.63
2023-05-14T18:04:39.725Z,100456.75
2023-05-14T18:07:08.905Z,100439.22
2023-05-14T18:09:36.679Z,100429.16
2023-05-14T18:12:04.463Z,100424.84
2023-05-14T18:14:32.243Z,100420.91
2023-05-14T18:17:00.082Z,100414.56
2023-05-14T18:19:27.987Z,100416.28
2023-05-14T18:21:56.204Z,100401.91
2023-05-14T18:24:26.171Z,100402.06
2023-05-14T18:26:53.997Z,100412.28
2023-05-14T18:29:21.797Z,100418.81
2023-05-14T18:31:49.586Z,100421.03
2023-05-14T18:34:18.025Z,100424.84
2023-05-14T18:36:47.884Z,100417.25
2023-05-14T18:39:20.145Z,100417.19
2023-05-14T18:41:53.175Z,100411.78
2023-05-14T18:44:21.171Z,100413.94
2023-05-14T18:46:49.230Z,100402.28
2023-05-14T18:49:17.236Z,100391.03
2023-05-14T18:51:45.170Z,100389.91
2023-05-14T18:54:13.078Z,100395.94
2023-05-14T18:56:45.519Z,100396.81
2023-05-14T18:59:19.114Z,100393.16
2023-05-14T19:01:47.098Z,100384.66
2023-05-14T19:04:14.974Z,100384.84
2023-05-14T19:06:42.985Z,100364.50
2023-05-14T19:09:10.854Z,100355.78
2023-05-14T19:11:38.912Z,100345.78
2023-05-14T19:14:06.857Z,100333.44
2023-05-14T19:16:36.536Z,100332.63
2023-05-14T19:19:05.048Z,100331.28
2023-05-14T19:21:32.818Z,100332.66
2023-05-14T19:24:02.982Z,100339.53
2023-05-14T19:26:30.798Z,100342.16
2023-05-14T19:28:59.070Z,100349.25
2023-05-14T19:31:27.058Z,100346.34
2023-05-14T19:33:56.387Z,100334.03
2023-05-14T19:36:24.092Z,100312.63
2023-05-14T19:38:51.823Z,100291.88
2023-05-14T19:41:19.571Z,100276.97
2023-05-14T19:43:47.340Z,100258.97
2023-05-14T19:46:15.200Z,100238.84
2023-05-14T19:48:43.036Z,100224.53
2023-05-14T19:51:12.109Z,100219.06
2023-05-14T19:53:39.869Z,100207.94
2023-05-14T19:56:07.705Z,100202.31
2023-05-14T19:58:35.458Z,100195.94
2023-05-14T20:01:03.257Z,100166.50
2023-05-14T20:03:31.143Z,100171.31
2023-05-14T20:05:58.894Z,100158.59
2023-05-14T20:08:29.024Z,100149.22
2023-05-14T20:10:56.964Z,100142.00
2023-05-14T20:13:25.483Z,100121.53
2023-05-14T20:15:54.995Z,100116.25
2023-05-14T20:18:22.947Z,100097.72
2023-05-14T20:20:50.664Z,100086.28
2023-05-14T20:23:18.513Z,100072.78
2023-05-14T20:25:47.798Z,100057.56
2023-05-14T20:28:15.684Z,100049.47
2023-05-14T20:30:43.350Z,100032.19
2023-05-14T20:33:12.959Z,100008.94
2023-05-14T20:35:43.829Z,100001.31
2023-05-14T20:38:12.739Z,100003.16
2023-05-14T20:40:41.110Z,99998.91
2023-05-14T20:43:10.289Z,100011.03
2023-05-14T20:45:38.029Z,100013.72
2023-05-14T20:48:10.046Z,100018.88
2023-05-14T20:50:37.954Z,100005.16
2023-05-14T20:53:05.887Z,99997.50
2023-05-14T20:55:33.943Z,99993.09
2023-05-14T20:58:01.720Z,99988.75
2023-05-14T21:00:31.096Z,99977.06
2023-05-14T21:03:00.207Z,99994.44
2023-05-14T21:05:28.271Z,99978.41
2023-05-14T21:07:56.103Z,99980.53
2023-05-14T21:10:24.044Z,99989.44
2023-05-14T21:12:52.448Z,99994.31
2023-05-14T21:15:20.593Z,99994.53
2023-05-14T21:17:49.756Z,99983.56
2023-05-14T21:20:17.609Z,99977.72
2023-05-14T21:22:45.756Z,99971.94
2023-05-14T21:25:13.711Z,99984.50
2023-05-14T21:27:41.448Z,99969.25
2023-05-14T21:30:10.520Z,99971.09
2023-05-14T21:32:38.222Z,99960.25
2023-05-14T21:35:08.097Z,99965.13
2023-05-14T21:37:35.959Z,99952.44
2023-05-14T21:40:03.645Z,99952.09
2023-05-14T21:42:31.428Z,99946.31
2023-05-14T21:44:59.093Z,99919.16
2023-05-14T21:47:27.661Z,99916.09
2023-05-14T21:49:55.269Z,99909.03
2023-05-14T21:52:24.367Z,99910.28
2023-05-14T21:54:52.116Z,99903.66
2023-05-14T21:57:20.075Z,99895.19
2023-05-14T21:59:50.480Z,99894.59
2023-05-14T22:02:18.357Z,99884.94
2023-05-14T22:04:46.903Z,99875.09
2023-05-14T22:07:14.581Z,99867.22
2023-05-14T22:09:46.492Z,99876.78
2023-05-14T22:12:14.275Z,99859.66
2023-05-14T22:14:42.031Z,99854.84
2023-05-14T22:17:09.824Z,99854.84
2023-05-14T22:19:37.435Z,99847.44
2023-05-14T22:22:05.526Z,99832.06
2023-05-14T22:24:33.120Z,99832.50
2023-05-14T22:27:02.298Z,99821.47
2023-05-14T22:29:30.078Z,99810.97
2023-05-14T22:31:57.974Z,99805.13
2023-05-14T22:34:25.736Z,99800.53
2023-05-14T22:36:53.562Z,99798.91
2023-05-14T22:39:21.463Z,99782.97
2023-05-14T22:41:54.728Z,99777.97
2023-05-14T22:44:24.127Z,99771.19
2023-05-14T22:46:52.102Z,99755.53
2023-05-14T22:49:19.784Z,99762.31
2023-05-14T22:51:47.445Z,99753.88
2023-05-14T22:54:15.112Z,99746.03
2023-05-14T22:56:42.878Z,99742.16
2023-05-14T22:59:10.646Z,99726.28
2023-05-14T23:01:40.526Z,99721.28
2023-05-14T23:04:08.324Z,99718.44
2023-05-14T23:06:36.464Z,99714.22
2023-05-14T23:09:04.207Z,99715.81
2023-05-14T23:11:31.950Z,99708.75
2023-05-14T23:13:59.644Z,99699.50
2023-05-14T23:16:27.412Z,99704.97
2023-05-14T23:18:56.528Z,99709.66
2023-05-14T23:21:24.689Z,99694.81
2023-05-14T23:23:52.400Z,99684.31
2023-05-14T23:26:20.108Z,99684.69
2023-05-14T23:28:48.293Z,99683.53
2023-05-14T23:31:16.094Z,99672.34
2023-05-14T23:33:45.037Z,99673.94
2023-05-14T23:36:14.257Z,99667.31
2023-05-14T23:38:42.148Z,99625.88
2023-05-14T23:41:09.837Z,99617.00
2023-05-14T23:43:38.165Z,99617.16
2023-05-14T23:46:06.218Z,99618.97
2023-05-14T23:48:33.922Z,99627.41
2023-05-14T23:51:01.760Z,99611.09
2023-05-14T23:53:30.849Z,99621.44
2023-05-14T23:55:58.664Z,99616.56
2023-05-14T23:58:26.483Z,99599.69
